createdAt,value
2023-02-04T00:00:26.922Z,99.90
2023-02-04T00:02:57.352Z,99.90
2023-02-04T00:05:24.611Z,99.70
2023-02-04T00:07:51.818Z,99.70
2023-02-04T00:10:19.091Z,99.60
2023-02-04T00:12:46.231Z,99.20
2023-02-04T00:15:13.594Z,98.90
2023-02-04T00:17:40.825Z,99.30
2023-02-04T00:20:08.213Z,99.50
2023-02-04T00:22:35.633Z,99.00
2023-02-04T00:25:02.797Z,99.10
2023-02-04T00:27:29.981Z,98.80
2023-02-04T00:29:57.818Z,99.60
2023-02-04T00:32:25.397Z,99.90
2023-02-04T00:34:54.831Z,99.90
2023-02-04T00:37:22.170Z,99.90
2023-02-04T00:39:49.337Z,99.90
2023-02-04T00:42:16.699Z,99.90
2023-02-04T00:44:43.972Z,99.90
2023-02-04T00:47:13.528Z,99.90
2023-02-04T00:49:44.077Z,99.90
2023-02-04T00:52:11.329Z,99.90
2023-02-04T00:54:38.486Z,99.90
2023-02-04T00:57:05.947Z,99.90
2023-02-04T00:59:33.222Z,99.90
2023-02-04T01:02:00.527Z,99.90
2023-02-04T01:04:29.880Z,99.90
2023-02-04T01:06:57.144Z,99.90
2023-02-04T01:09:26.482Z,99.90
2023-02-04T01:11:53.790Z,99.90
2023-02-04T01:14:20.952Z,99.90
2023-02-04T01:16:48.371Z,99.90
2023-02-04T01:19:16.364Z,99.90
2023-02-04T01:21:44.502Z,99.90
2023-02-04T01:24:12.126Z,99.90
2023-02-04T01:26:59.479Z,99.90
2023-02-04T01:29:26.685Z,99.90
2023-02-04T01:31:53.912Z,99.90
2023-02-04T01:34:21.256Z,99.90
2023-02-04T01:36:51.754Z,99.90
2023-02-04T01:39:18.804Z,99.90
2023-02-04T01:41:47.307Z,99.90
2023-02-04T01:44:14.542Z,99.90
2023-02-04T01:46:42.152Z,99.90
2023-02-04T01:49:09.770Z,99.90
2023-02-04T01:51:37.381Z,99.90
2023-02-04T01:54:04.546Z,99.90
2023-02-04T01:56:32.362Z,99.90
2023-02-04T01:58:59.952Z,99.90
2023-02-04T02:01:36.243Z,99.90
2023-02-04T02:04:03.774Z,99.90
2023-02-04T02:06:30.936Z,99.90
2023-02-04T02:08:58.584Z,99.90
2023-02-04T02:11:26.508Z,99.90
2023-02-04T02:13:53.806Z,99.90
2023-02-04T02:16:21.229Z,99.90
2023-02-04T02:18:48.722Z,99.90
2023-02-04T02:21:16.892Z,99.90
2023-02-04T02:23:51.934Z,99.90
2023-02-04T02:26:19.272Z,99.90
2023-02-04T02:28:47.930Z,99.90
2023-02-04T02:31:22.106Z,99.90
2023-02-04T02:33:49.350Z,99.90
2023-02-04T02:36:16.990Z,99.90
2023-02-04T02:38:44.244Z,99.90
2023-02-04T02:41:12.024Z,99.90
2023-02-04T02:43:39.223Z,99.90
2023-02-04T02:46:06.783Z,99.90
2023-02-04T02:48:33.874Z,99.90
2023-02-04T02:51:01.523Z,99.90
2023-02-04T02:53:28.943Z,99.90
2023-02-04T02:55:56.415Z,99.90
2023-02-04T02:58:35.067Z,99.90
2023-02-04T03:01:03.976Z,99.90
2023-02-04T03:03:36.291Z,99.90
2023-02-04T03:06:17.250Z,99.90
2023-02-04T03:08:44.565Z,99.90
2023-02-04T03:11:12.415Z,99.90
2023-02-04T03:13:39.762Z,99.90
2023-02-04T03:16:08.376Z,99.90
2023-02-04T03:18:36.026Z,99.90
2023-02-04T03:21:04.984Z,99.90
2023-02-04T03:23:35.430Z,99.90
2023-02-04T03:26:04.527Z,99.90
2023-02-04T03:28:32.561Z,99.90
2023-02-04T03:31:00.580Z,99.90
2023-02-04T03:33:31.583Z,99.90
2023-02-04T03:35:59.363Z,99.90
2023-02-04T03:38:26.784Z,99.90
2023-02-04T03:40:54.088Z,99.90
2023-02-04T03:43:21.133Z,99.90
2023-02-04T03:45:48.401Z,99.90
2023-02-04T03:48:15.630Z,99.90
2023-02-04T03:50:42.790Z,99.90
2023-02-04T03:53:11.630Z,99.90
2023-02-04T03:55:38.935Z,99.90
2023-02-04T03:58:06.175Z,99.90
2023-02-04T04:00:33.860Z,99.90
2023-02-04T04:03:01.253Z,99.90
2023-02-04T04:05:28.860Z,99.90
2023-02-04T04:07:56.374Z,99.90
2023-02-04T04:10:23.553Z,99.90
2023-02-04T04:12:50.684Z,99.90
2023-02-04T04:15:18.042Z,99.90
2023-02-04T04:17:45.351Z,99.90
2023-02-04T04:20:12.634Z,99.90
2023-02-04T04:22:41.961Z,99.90
2023-02-04T04:25:09.503Z,99.90
2023-02-04T04:27:36.573Z,99.90
2023-02-04T04:30:04.370Z,99.90
2023-02-04T04:32:31.649Z,99.90
2023-02-04T04:34:58.991Z,99.90
2023-02-04T04:37:26.213Z,99.90
2023-02-04T04:39:53.421Z,99.90
2023-02-04T04:42:20.511Z,99.90
2023-02-04T04:44:47.749Z,99.90
2023-02-04T04:47:15.024Z,99.90
2023-02-04T04:49:42.452Z,99.90
2023-02-04T04:52:10.944Z,99.90
2023-02-04T04:54:38.090Z,99.90
2023-02-04T04:57:05.145Z,99.90
2023-02-04T04:59:32.349Z,99.90
2023-02-04T05:01:59.572Z,99.90
2023-02-04T05:04:26.752Z,99.90
2023-02-04T05:06:54.101Z,99.90
2023-02-04T05:09:21.292Z,99.90
2023-02-04T05:11:48.616Z,99.90
2023-02-04T05:14:15.796Z,99.90
2023-02-04T05:16:42.972Z,99.90
2023-02-04T05:19:12.037Z,99.90
2023-02-04T05:21:39.253Z,99.90
2023-02-04T05:24:09.602Z,99.90
2023-02-04T05:26:36.649Z,99.90
2023-02-04T05:29:04.283Z,99.90
2023-02-04T05:31:31.662Z,99.90
2023-02-04T05:33:58.834Z,99.90
2023-02-04T05:36:26.090Z,99.90
2023-02-04T05:38:53.469Z,99.90
2023-02-04T05:41:20.565Z,99.90
2023-02-04T05:43:47.796Z,99.90
2023-02-04T05:46:14.984Z,99.90
2023-02-04T05:48:43.321Z,99.90
2023-02-04T05:51:12.674Z,99.90
2023-02-04T05:53:39.891Z,99.90
2023-02-04T05:56:07.532Z,99.90
2023-02-04T05:58:34.992Z,99.90
2023-02-04T06:01:02.599Z,99.90
2023-02-04T06:03:30.012Z,99.90
2023-02-04T06:05:57.375Z,99.90
2023-02-04T06:08:24.618Z,99.90
2023-02-04T06:10:51.656Z,99.90
2023-02-04T06:13:18.829Z,99.90
2023-02-04T06:15:46.065Z,99.90
2023-02-04T06:18:14.196Z,99.90
2023-02-04T06:20:44.892Z,99.90
2023-02-04T06:23:13.347Z,99.90
2023-02-04T06:25:43.074Z,99.90
2023-02-04T06:28:10.664Z,99.90
2023-02-04T06:30:38.170Z,99.90
2023-02-04T06:33:05.277Z,99.90
2023-02-04T06:35:32.497Z,99.90
2023-02-04T06:37:59.673Z,99.90
2023-02-04T06:40:26.802Z,99.90
2023-02-04T06:42:53.999Z,99.90
2023-02-04T06:45:21.117Z,99.90
2023-02-04T06:47:48.186Z,99.90
2023-02-04T06:50:18.922Z,99.90
2023-02-04T06:52:49.309Z,99.90
2023-02-04T06:55:16.745Z,99.90
2023-02-04T06:57:43.963Z,99.90
2023-02-04T07:00:14.378Z,99.90
2023-02-04T07:02:42.593Z,99.90
2023-02-04T07:05:10.309Z,99.90
2023-02-04T07:07:37.869Z,99.90
2023-02-04T07:10:05.214Z,99.90
2023-02-04T07:12:32.766Z,99.90
2023-02-04T07:15:00.108Z,99.90
2023-02-04T07:17:27.178Z,99.90
2023-02-04T07:19:54.428Z,99.90
2023-02-04T07:22:21.785Z,99.90
2023-02-04T07:24:49.100Z,99.90
2023-02-04T07:27:16.440Z,99.90
2023-02-04T07:29:43.536Z,99.90
2023-02-04T07:32:12.951Z,99.90
2023-02-04T07:34:42.039Z,99.90
2023-02-04T07:37:09.283Z,99.90
2023-02-04T07:39:36.332Z,99.90
2023-02-04T07:42:03.640Z,99.90
2023-02-04T07:44:37.853Z,99.90
2023-02-04T07:47:05.093Z,99.90
2023-02-04T07:49:32.153Z,99.90
2023-02-04T07:51:59.915Z,99.90
2023-02-04T07:54:27.216Z,99.90
2023-02-04T07:56:54.279Z,99.90
2023-02-04T07:59:21.453Z,99.90
2023-02-04T08:01:50.040Z,99.90
2023-02-04T08:04:17.244Z,99.90
2023-02-04T08:06:44.463Z,99.90
2023-02-04T08:09:14.354Z,99.90
2023-02-04T08:11:42.167Z,99.90
2023-02-04T08:14:09.378Z,99.90
2023-02-04T08:16:36.671Z,99.90
2023-02-04T08:19:03.774Z,99.90
2023-02-04T08:21:31.082Z,99.90
2023-02-04T08:23:58.383Z,99.90
2023-02-04T08:26:25.534Z,99.90
2023-02-04T08:28:53.024Z,99.90
2023-02-04T08:31:20.602Z,99.90
2023-02-04T08:33:48.165Z,99.90
2023-02-04T08:36:15.427Z,99.90
2023-02-04T08:38:44.818Z,99.90
2023-02-04T08:41:13.291Z,99.90
2023-02-04T08:43:43.520Z,99.90
2023-02-04T08:46:10.900Z,99.90
2023-02-04T08:48:38.026Z,99.90
2023-02-04T08:51:05.470Z,99.90
2023-02-04T08:53:32.665Z,99.90
2023-02-04T08:56:00.140Z,99.90
2023-02-04T08:58:27.460Z,99.90
2023-02-04T09:00:57.581Z,99.90
2023-02-04T09:03:27.824Z,99.40
2023-02-04T09:05:55.055Z,99.90
2023-02-04T09:08:22.341Z,98.70
2023-02-04T09:10:49.476Z,99.80
2023-02-04T09:13:16.714Z,99.90
2023-02-04T09:15:43.982Z,99.90
2023-02-04T09:18:18.937Z,98.70
2023-02-04T09:20:46.588Z,99.50
2023-02-04T09:23:13.991Z,98.90
2023-02-04T09:25:42.007Z,99.90
2023-02-04T09:28:12.088Z,99.20
2023-02-04T09:30:41.484Z,97.70
2023-02-04T09:33:09.561Z,96.90
2023-02-04T09:35:36.985Z,95.50
2023-02-04T09:38:04.639Z,95.40
2023-02-04T09:40:34.920Z,95.30
2023-02-04T09:43:02.602Z,95.10
2023-02-04T09:45:31.112Z,95.70
2023-02-04T09:47:58.949Z,94.10
2023-02-04T09:50:27.770Z,92.80
2023-02-04T09:52:56.056Z,93.00
2023-02-04T09:55:27.252Z,89.40
2023-02-04T09:57:54.668Z,88.70
2023-02-04T10:00:25.482Z,87.90
2023-02-04T10:02:52.671Z,87.60
2023-02-04T10:05:33.075Z,89.40
2023-02-04T10:08:00.208Z,87.70
2023-02-04T10:10:27.694Z,87.30
2023-02-04T10:13:00.284Z,86.00
2023-02-04T10:15:27.562Z,85.50
2023-02-04T10:18:05.803Z,85.50
2023-02-04T10:20:33.448Z,85.60
2023-02-04T10:23:00.776Z,84.20
2023-02-04T10:25:28.040Z,84.80
2023-02-04T10:27:56.817Z,84.60
2023-02-04T10:30:36.015Z,83.40
2023-02-04T10:33:26.811Z,82.10
2023-02-04T10:35:55.807Z,82.90
2023-02-04T10:38:23.312Z,81.80
2023-02-04T10:41:01.653Z,80.80
2023-02-04T10:43:28.929Z,81.10
2023-02-04T10:46:01.547Z,80.30
2023-02-04T10:48:30.371Z,78.50
2023-02-04T10:51:00.940Z,77.90
2023-02-04T10:53:46.927Z,74.80
2023-02-04T10:56:22.074Z,72.00
2023-02-04T10:58:49.723Z,68.00
2023-02-04T11:01:17.077Z,64.00
2023-02-04T11:03:46.455Z,65.40
2023-02-04T11:06:25.093Z,65.30
2023-02-04T11:08:54.809Z,64.50
2023-02-04T11:11:26.123Z,64.50
2023-02-04T11:13:55.183Z,64.40
2023-02-04T11:16:27.434Z,61.00
2023-02-04T11:19:01.988Z,59.40
2023-02-04T11:21:29.145Z,58.60
2023-02-04T11:24:14.681Z,61.00
2023-02-04T11:26:52.835Z,57.30
2023-02-04T11:29:38.966Z,56.40
2023-02-04T11:32:09.843Z,55.30
2023-02-04T11:34:48.710Z,55.90
2023-02-04T11:37:28.480Z,55.40
2023-02-04T11:39:55.734Z,52.30
2023-02-04T11:42:25.125Z,55.10
2023-02-04T11:44:58.824Z,52.20
2023-02-04T11:47:27.193Z,41.10
2023-02-04T11:49:59.541Z,40.30
2023-02-04T11:52:26.897Z,45.70
2023-02-04T11:55:01.416Z,43.10
2023-02-04T11:57:28.780Z,43.70
2023-02-04T11:59:56.021Z,45.60
2023-02-04T12:02:26.138Z,47.80
2023-02-04T12:04:55.086Z,47.30
2023-02-04T12:07:25.792Z,46.00
2023-02-04T12:09:52.973Z,47.60
2023-02-04T12:12:33.183Z,50.00
2023-02-04T12:15:09.625Z,48.30
2023-02-04T12:17:37.112Z,46.90
2023-02-04T12:20:04.563Z,48.30
2023-02-04T12:22:31.694Z,45.90
2023-02-04T12:24:59.193Z,49.10
2023-02-04T12:27:26.400Z,50.70
2023-02-04T12:29:53.487Z,53.70
2023-02-04T12:32:20.942Z,57.30
2023-02-04T12:34:48.156Z,55.40
2023-02-04T12:37:15.325Z,56.10
2023-02-04T12:39:42.543Z,55.40
2023-02-04T12:42:09.674Z,50.00
2023-02-04T12:44:41.307Z,49.80
2023-02-04T12:47:08.679Z,52.60
2023-02-04T12:49:38.242Z,53.40
2023-02-04T12:52:06.213Z,56.40
2023-02-04T12:54:33.638Z,53.40
2023-02-04T12:57:02.813Z,53.20
2023-02-04T12:59:31.605Z,55.70
2023-02-04T13:01:59.254Z,54.40
2023-02-04T13:04:26.469Z,53.80
2023-02-04T13:06:53.611Z,52.40
2023-02-04T13:09:20.870Z,53.80
2023-02-04T13:11:48.259Z,52.20
2023-02-04T13:14:15.446Z,51.60
2023-02-04T13:16:42.895Z,52.90
2023-02-04T13:19:11.394Z,51.60
2023-02-04T13:21:38.842Z,52.40
2023-02-04T13:24:06.894Z,52.30
2023-02-04T13:26:38.453Z,51.00
2023-02-04T13:29:05.611Z,52.70
2023-02-04T13:31:36.978Z,50.90
2023-02-04T13:34:04.166Z,52.10
2023-02-04T13:36:31.567Z,51.10
2023-02-04T13:39:05.214Z,51.00
2023-02-04T13:41:34.961Z,50.60
2023-02-04T13:44:02.825Z,51.90
2023-02-04T13:46:32.662Z,51.00
2023-02-04T13:48:59.788Z,53.20
2023-02-04T13:51:27.095Z,51.30
2023-02-04T13:53:54.238Z,50.70
2023-02-04T13:56:21.602Z,51.70
2023-02-04T13:58:48.924Z,54.80
2023-02-04T14:01:16.305Z,54.70
2023-02-04T14:03:44.304Z,49.30
2023-02-04T14:06:11.930Z,52.80
2023-02-04T14:08:39.443Z,51.40
2023-02-04T14:11:07.667Z,50.00
2023-02-04T14:13:35.396Z,46.80
2023-02-04T14:16:02.944Z,47.70
2023-02-04T14:18:30.320Z,45.60
2023-02-04T14:20:57.811Z,40.80
2023-02-04T14:23:25.341Z,40.40
2023-02-04T14:25:52.602Z,34.60
2023-02-04T14:28:20.255Z,35.50
2023-02-04T14:30:47.767Z,32.90
2023-02-04T14:33:16.027Z,33.90
2023-02-04T14:35:43.870Z,34.80
2023-02-04T14:38:12.460Z,31.10
2023-02-04T14:40:45.667Z,31.80
2023-02-04T14:43:13.142Z,32.60
2023-02-04T14:45:43.681Z,33.50
2023-02-04T14:48:10.825Z,36.10
2023-02-04T14:50:38.524Z,35.00
2023-02-04T14:53:05.876Z,34.70
2023-02-04T14:55:33.157Z,33.50
2023-02-04T14:58:00.399Z,30.20
2023-02-04T15:00:27.766Z,27.90
2023-02-04T15:02:54.904Z,27.50
2023-02-04T15:05:22.173Z,28.80
2023-02-04T15:07:49.394Z,27.90
2023-02-04T15:10:16.679Z,29.10
2023-02-04T15:12:44.014Z,26.30
2023-02-04T15:15:11.884Z,26.40
2023-02-04T15:17:39.042Z,26.90
2023-02-04T15:20:07.015Z,26.80
2023-02-04T15:22:34.804Z,26.90
2023-02-04T15:25:02.346Z,28.20
2023-02-04T15:27:29.809Z,26.80
2023-02-04T15:29:59.613Z,27.20
2023-02-04T15:32:26.709Z,28.30
2023-02-04T15:34:54.302Z,29.50
2023-02-04T15:37:21.592Z,27.20
2023-02-04T15:39:48.833Z,26.70
2023-02-04T15:42:16.002Z,27.20
2023-02-04T15:44:43.237Z,27.10
2023-02-04T15:47:12.825Z,28.20
2023-02-04T15:49:40.045Z,30.20
2023-02-04T15:52:13.493Z,28.20
2023-02-04T15:54:43.410Z,28.00
2023-02-04T15:57:10.791Z,30.40
2023-02-04T15:59:37.913Z,28.40
2023-02-04T16:02:05.066Z,27.70
2023-02-04T16:04:35.262Z,27.30
2023-02-04T16:07:08.089Z,29.10
2023-02-04T16:09:35.677Z,29.60
2023-02-04T16:12:03.192Z,25.40
2023-02-04T16:14:30.345Z,28.20
2023-02-04T16:16:57.635Z,28.00
2023-02-04T16:19:24.994Z,29.50
2023-02-04T16:21:52.039Z,28.60
2023-02-04T16:24:19.471Z,27.30
2023-02-04T16:26:46.842Z,28.20
2023-02-04T16:29:13.995Z,28.90
2023-02-04T16:31:41.776Z,28.80
2023-02-04T16:34:09.171Z,30.20
2023-02-04T16:36:36.278Z,32.70
2023-02-04T16:39:03.667Z,34.70
2023-02-04T16:41:31.102Z,37.30
2023-02-04T16:43:59.268Z,35.00
2023-02-04T16:46:28.719Z,35.10
2023-02-04T16:48:56.270Z,35.20
2023-02-04T16:51:24.971Z,35.90
2023-02-04T16:53:52.258Z,35.00
2023-02-04T16:56:19.494Z,34.50
2023-02-04T16:58:47.261Z,34.50
2023-02-04T17:01:17.341Z,35.10
2023-02-04T17:03:44.634Z,35.20
2023-02-04T17:06:16.655Z,34.80
2023-02-04T17:08:43.922Z,35.50
2023-02-04T17:11:29.123Z,35.90
2023-02-04T17:13:57.100Z,34.50
2023-02-04T17:16:24.456Z,34.50
2023-02-04T17:18:51.755Z,34.00
2023-02-04T17:21:19.015Z,36.00
2023-02-04T17:23:46.047Z,37.10
2023-02-04T17:26:13.276Z,35.90
2023-02-04T17:28:43.015Z,39.10
2023-02-04T17:31:11.414Z,38.10
2023-02-04T17:33:38.769Z,38.10
2023-02-04T17:36:07.134Z,38.10
2023-02-04T17:38:34.288Z,36.20
2023-02-04T17:41:02.814Z,36.90
2023-02-04T17:43:30.164Z,36.80
2023-02-04T17:45:57.232Z,37.60
2023-02-04T17:48:24.495Z,38.20
2023-02-04T17:50:53.355Z,37.80
2023-02-04T17:53:20.992Z,37.80
2023-02-04T17:55:48.452Z,39.10
2023-02-04T17:58:17.662Z,38.60
2023-02-04T18:00:45.772Z,39.50
2023-02-04T18:03:19.144Z,40.70
2023-02-04T18:05:47.808Z,41.60
2023-02-04T18:08:27.945Z,39.60
2023-02-04T18:10:55.510Z,41.00
2023-02-04T18:13:35.302Z,38.80
2023-02-04T18:16:08.351Z,40.30
2023-02-04T18:18:36.905Z,40.80
2023-02-04T18:21:15.909Z,42.60
2023-02-04T18:23:46.134Z,43.00
2023-02-04T18:26:20.789Z,41.90
2023-02-04T18:28:49.229Z,43.40
2023-02-04T18:31:35.620Z,42.10
2023-02-04T18:34:14.435Z,43.00
2023-02-04T18:36:44.245Z,42.70
2023-02-04T18:39:19.196Z,43.60
2023-02-04T18:41:49.081Z,47.00
2023-02-04T18:44:22.484Z,46.20
2023-02-04T18:46:49.581Z,46.90
2023-02-04T18:49:49.442Z,46.80
2023-02-04T18:52:20.414Z,46.00
2023-02-04T18:54:58.395Z,46.10
2023-02-04T18:57:38.458Z,48.10
2023-02-04T19:00:13.932Z,48.50
2023-02-04T19:02:56.533Z,47.90
2023-02-04T19:05:30.002Z,49.70
2023-02-04T19:08:05.124Z,48.70
2023-02-04T19:10:39.949Z,50.40
2023-02-04T19:13:39.784Z,49.80
2023-02-04T19:16:33.497Z,47.80
2023-02-04T19:19:00.703Z,48.50
2023-02-04T19:21:31.431Z,49.40
2023-02-04T19:24:03.289Z,49.30
2023-02-04T19:26:34.462Z,48.80
2023-02-04T19:29:21.837Z,49.40
2023-02-04T19:31:49.798Z,50.70
2023-02-04T19:34:38.244Z,50.10
2023-02-04T19:37:28.498Z,50.50
2023-02-04T19:39:56.007Z,51.80
2023-02-04T19:42:31.803Z,51.60
2023-02-04T19:45:11.758Z,51.70
2023-02-04T19:47:44.878Z,51.70
2023-02-04T19:50:22.031Z,52.90
2023-02-04T19:52:52.712Z,52.90
2023-02-04T19:55:45.570Z,53.30
2023-02-04T19:58:29.808Z,53.90
2023-02-04T20:00:58.020Z,54.00
2023-02-04T20:03:36.786Z,55.30
2023-02-04T20:06:11.867Z,55.40
2023-02-04T20:08:46.047Z,55.90
2023-02-04T20:11:31.644Z,56.20
2023-02-04T20:14:14.090Z,57.00
2023-02-04T20:16:48.502Z,57.00
2023-02-04T20:19:31.266Z,57.20
2023-02-04T20:22:23.779Z,57.90
2023-02-04T20:24:54.746Z,57.80
2023-02-04T20:27:25.679Z,58.50
2023-02-04T20:30:01.189Z,57.70
2023-02-04T20:32:28.849Z,58.00
2023-02-04T20:35:35.532Z,58.20
2023-02-04T20:38:11.748Z,58.60
2023-02-04T20:40:39.071Z,58.60
2023-02-04T20:43:20.733Z,59.00
2023-02-04T20:45:49.824Z,59.00
2023-02-04T20:48:16.985Z,59.30
2023-02-04T20:50:55.516Z,60.00
2023-02-04T20:53:22.778Z,59.80
2023-02-04T20:55:52.006Z,60.60
2023-02-04T20:58:28.052Z,60.50
2023-02-04T21:00:56.113Z,61.10
2023-02-04T21:03:30.522Z,61.70
2023-02-04T21:05:58.905Z,62.10
2023-02-04T21:08:37.358Z,62.40
2023-02-04T21:11:04.564Z,63.50
2023-02-04T21:13:31.818Z,63.80
2023-02-04T21:15:59.354Z,63.70
2023-02-04T21:18:26.828Z,64.00
2023-02-04T21:20:53.939Z,64.60
2023-02-04T21:23:21.358Z,65.00
2023-02-04T21:25:48.427Z,66.50
2023-02-04T21:28:15.588Z,66.30
2023-02-04T21:30:43.733Z,66.90
2023-02-04T21:33:11.949Z,67.30
2023-02-04T21:35:39.685Z,67.70
2023-02-04T21:38:07.221Z,68.20
2023-02-04T21:40:35.138Z,68.70
2023-02-04T21:43:05.862Z,69.40
2023-02-04T21:45:33.754Z,69.00
2023-02-04T21:48:01.620Z,69.30
2023-02-04T21:50:28.867Z,69.80
2023-02-04T21:52:56.359Z,70.20
2023-02-04T21:55:23.546Z,70.20
2023-02-04T21:57:51.177Z,70.80
2023-02-04T22:00:20.061Z,71.00
2023-02-04T22:02:47.126Z,72.00
2023-02-04T22:05:14.270Z,71.40
2023-02-04T22:07:44.746Z,71.70
2023-02-04T22:10:17.012Z,71.80
2023-02-04T22:12:44.452Z,71.90
2023-02-04T22:15:17.446Z,72.60
2023-02-04T22:17:45.142Z,73.20
2023-02-04T22:20:12.770Z,73.10
2023-02-04T22:22:39.970Z,73.50
2023-02-04T22:25:10.055Z,73.10
2023-02-04T22:27:40.035Z,72.20
2023-02-04T22:30:07.827Z,72.40
2023-02-04T22:32:35.386Z,72.20
2023-02-04T22:35:02.510Z,72.40
2023-02-04T22:37:29.909Z,72.50
2023-02-04T22:39:57.416Z,72.50
2023-02-04T22:42:24.595Z,72.40
2023-02-04T22:44:51.847Z,72.80
2023-02-04T22:47:19.108Z,73.00
2023-02-04T22:49:46.458Z,73.20
2023-02-04T22:52:14.524Z,73.00
2023-02-04T22:54:45.698Z,73.10
2023-02-04T22:57:12.791Z,73.30
2023-02-04T22:59:40.111Z,73.20
2023-02-04T23:02:10.616Z,73.00
2023-02-04T23:04:37.875Z,73.80
2023-02-04T23:07:05.221Z,73.20
2023-02-04T23:09:32.709Z,73.30
2023-02-04T23:12:12.952Z,73.40
2023-02-04T23:14:41.767Z,73.50
2023-02-04T23:17:09.654Z,74.30
2023-02-04T23:19:36.996Z,74.00
2023-02-04T23:22:04.236Z,74.20
2023-02-04T23:24:31.388Z,74.00
2023-02-04T23:27:00.388Z,74.10
2023-02-04T23:29:28.900Z,74.60
2023-02-04T23:31:56.680Z,74.80
2023-02-04T23:34:23.976Z,74.40
2023-02-04T23:36:51.374Z,74.00
2023-02-04T23:39:19.553Z,73.60
2023-02-04T23:41:49.888Z,74.30
2023-02-04T23:44:17.100Z,74.60
2023-02-04T23:46:45.573Z,74.40
2023-02-04T23:49:12.826Z,74.50
2023-02-04T23:51:41.001Z,75.50
2023-02-04T23:54:08.192Z,75.10
2023-02-04T23:56:35.437Z,75.10
2023-02-04T23:59:02.817Z,75.20
